Time;durP1;ratioP1;P1;durP2;ratioP2;P2;SDS_P1;SDS_P2;PMS_P1;PMS_P2;Temp;Humidity;BMP_temperature;BMP_pressure;BME280_temperature;BME280_humidity;BME280_pressure;Samples;Min_cycle;Max_cycle;Signal;HPM_P1;HPM_P2
2022/02/26 00:02:24;;;;;;;34.22;4.03;;;1.10;99.90;;;;;;4941339;28;20323;-88
2022/02/26 00:04:51;;;;;;;33.67;4.35;;;1.20;99.90;;;;;;4962768;28;20039;-88
2022/02/26 00:07:17;;;;;;;43.70;4.65;;;1.10;99.90;;;;;;4966763;28;20034;-88
2022/02/26 00:09:42;;;;;;;44.50;5.28;;;1.20;99.90;;;;;;4950741;28;20039;-88
2022/02/26 00:12:08;;;;;;;44.03;5.13;;;1.30;99.90;;;;;;4949488;28;20085;-88
2022/02/26 00:14:35;;;;;;;28.83;4.38;;;1.30;99.90;;;;;;4955309;28;20038;-88
2022/02/26 00:17:00;;;;;;;50.95;4.68;;;1.40;99.90;;;;;;4964789;28;20034;-88
2022/02/26 00:19:26;;;;;;;40.50;4.32;;;1.30;99.90;;;;;;4964722;28;20035;-89
2022/02/26 00:21:53;;;;;;;39.67;4.63;;;1.40;99.90;;;;;;4950824;28;20129;-88
2022/02/26 00:24:19;;;;;;;38.10;4.82;;;1.40;99.90;;;;;;4936796;28;20457;-88
2022/02/26 00:26:44;;;;;;;43.38;5.20;;;1.30;99.90;;;;;;4968906;28;20042;-88
2022/02/26 00:29:10;;;;;;;43.05;4.80;;;1.40;99.90;;;;;;4947919;28;20044;-88
2022/02/26 00:31:36;;;;;;;44.33;4.75;;;1.30;99.90;;;;;;4936425;28;20107;-88
2022/02/26 00:34:01;;;;;;;41.80;4.10;;;1.30;99.90;;;;;;4952705;28;20112;-89
2022/02/26 00:36:28;;;;;;;37.15;4.70;;;1.40;99.90;;;;;;4952632;28;20081;-88
2022/02/26 00:38:55;;;;;;;41.40;4.63;;;1.30;99.90;;;;;;4968520;28;20038;-88
2022/02/26 00:41:21;;;;;;;37.10;4.70;;;1.30;99.90;;;;;;4950702;28;20054;-88
2022/02/26 00:43:46;;;;;;;38.33;5.00;;;1.30;99.90;;;;;;4933152;28;20234;-89
2022/02/26 00:46:12;;;;;;;46.28;4.43;;;1.30;99.90;;;;;;4948453;28;20050;-88
2022/02/26 00:51:23;;;;;;;36.33;4.22;;;1.20;99.90;;;;;;4985803;28;20136;-88
2022/02/26 00:53:48;;;;;;;46.92;5.72;;;1.10;99.90;;;;;;4953405;28;20242;-89
2022/02/26 00:56:14;;;;;;;35.63;4.50;;;1.10;99.90;;;;;;4949979;28;20043;-89
2022/02/26 00:58:40;;;;;;;48.60;5.18;;;1.10;99.90;;;;;;4950272;28;20422;-89
2022/02/26 01:01:06;;;;;;;48.50;5.03;;;1.10;99.90;;;;;;4949021;28;20046;-88
2022/02/26 01:03:32;;;;;;;50.35;5.75;;;1.10;99.90;;;;;;4935724;28;20729;-88
2022/02/26 01:05:58;;;;;;;42.05;4.85;;;1.10;99.90;;;;;;4932310;28;20046;-88
2022/02/26 01:08:23;;;;;;;52.10;5.50;;;1.10;99.90;;;;;;4932321;28;20031;-88
2022/02/26 01:10:49;;;;;;;39.83;5.00;;;1.10;99.90;;;;;;4950958;28;20031;-88
2022/02/26 01:13:15;;;;;;;36.72;4.60;;;1.10;99.90;;;;;;4932292;28;20038;-88
2022/02/26 01:15:41;;;;;;;42.42;4.20;;;1.00;99.90;;;;;;4933801;28;20104;-89
2022/02/26 01:18:07;;;;;;;48.17;5.25;;;0.90;99.90;;;;;;4943640;28;20429;-89
2022/02/26 01:20:33;;;;;;;33.78;4.03;;;1.00;99.90;;;;;;4936897;28;22300;-88
2022/02/26 01:22:59;;;;;;;29.02;4.07;;;0.90;99.90;;;;;;4938570;28;20119;-88
2022/02/26 01:25:24;;;;;;;57.53;5.75;;;0.90;99.90;;;;;;4919193;28;20377;-89
2022/02/26 01:27:50;;;;;;;45.22;4.47;;;0.80;99.90;;;;;;4954838;28;20042;-89
2022/02/26 01:30:16;;;;;;;44.30;5.20;;;0.90;99.90;;;;;;4948523;28;20037;-88
2022/02/26 01:32:42;;;;;;;36.70;4.70;;;0.90;99.90;;;;;;4966592;28;20105;-89
2022/02/26 01:35:10;;;;;;;56.92;4.60;;;0.90;99.90;;;;;;4968526;28;20038;-89
2022/02/26 01:37:36;;;;;;;46.45;4.93;;;0.80;99.90;;;;;;4965651;28;20137;-88
2022/02/26 01:40:03;;;;;;;35.30;4.97;;;0.80;99.90;;;;;;4944075;28;20125;-88
2022/02/26 01:42:29;;;;;;;45.13;4.93;;;0.80;99.90;;;;;;4964210;28;20057;-89
2022/02/26 01:44:55;;;;;;;34.35;4.95;;;0.80;99.90;;;;;;4944303;28;20526;-88
2022/02/26 01:47:21;;;;;;;50.55;6.18;;;0.80;99.90;;;;;;4964223;28;20038;-88
2022/02/26 01:49:47;;;;;;;50.00;5.68;;;0.80;99.90;;;;;;4969277;28;20061;-88
2022/02/26 01:52:17;;;;;;;44.38;4.90;;;0.80;99.90;;;;;;4964313;28;20042;-88
2022/02/26 01:54:45;;;;;;;40.88;4.45;;;0.80;99.90;;;;;;4966506;28;20128;-88
2022/02/26 01:57:11;;;;;;;56.08;4.97;;;0.70;99.90;;;;;;4944720;28;20118;-88
2022/02/26 01:59:38;;;;;;;52.83;5.70;;;0.70;99.90;;;;;;4948298;28;20113;-88
2022/02/26 02:02:04;;;;;;;28.38;4.07;;;0.70;99.90;;;;;;4971475;28;20038;-88
2022/02/26 02:04:30;;;;;;;43.28;4.20;;;0.70;99.90;;;;;;4952677;28;20042;-88
2022/02/26 02:06:56;;;;;;;34.72;4.40;;;0.60;99.90;;;;;;4963597;28;20112;-89
2022/02/26 02:09:23;;;;;;;43.97;4.15;;;0.60;99.90;;;;;;4945355;28;20129;-88
2022/02/26 02:11:50;;;;;;;41.40;4.50;;;0.60;99.90;;;;;;4958475;28;20097;-88
2022/02/26 02:14:15;;;;;;;44.08;4.13;;;0.60;99.90;;;;;;4967979;28;20049;-88
2022/02/26 02:16:41;;;;;;;41.97;4.00;;;0.50;99.90;;;;;;4944523;28;20042;-88
2022/02/26 02:19:08;;;;;;;34.10;4.15;;;0.50;99.90;;;;;;4951512;28;20042;-88
2022/02/26 02:21:34;;;;;;;38.45;4.32;;;0.50;99.90;;;;;;4950394;28;20055;-88
2022/02/26 02:24:00;;;;;;;40.00;4.10;;;0.60;99.90;;;;;;4957777;28;20161;-88
2022/02/26 02:26:30;;;;;;;42.50;4.05;;;0.50;99.90;;;;;;4963435;28;20050;-88
2022/02/26 02:28:58;;;;;;;42.35;6.05;;;0.50;99.90;;;;;;4981786;28;20497;-89
2022/02/26 02:31:24;;;;;;;31.85;4.57;;;0.50;99.90;;;;;;4962890;28;20042;-88
2022/02/26 02:33:51;;;;;;;30.48;4.05;;;0.40;99.90;;;;;;4942380;28;20038;-89
2022/02/26 02:36:17;;;;;;;46.78;4.60;;;0.40;99.90;;;;;;4953184;28;20080;-88
2022/02/26 02:38:43;;;;;;;30.75;4.72;;;0.40;99.90;;;;;;4959882;28;20050;-89
2022/02/26 02:41:09;;;;;;;42.95;4.70;;;0.40;99.90;;;;;;4949508;28;20045;-89
2022/02/26 02:43:35;;;;;;;32.67;5.15;;;0.40;99.90;;;;;;4950543;28;20537;-88
2022/02/26 02:46:02;;;;;;;41.35;4.85;;;0.40;99.90;;;;;;4963737;28;20047;-89
2022/02/26 02:48:28;;;;;;;36.42;3.63;;;0.40;99.90;;;;;;4950576;28;20108;-88
2022/02/26 02:50:53;;;;;;;32.40;3.78;;;0.30;99.90;;;;;;4983792;28;20034;-89
2022/02/26 02:53:19;;;;;;;44.53;4.68;;;0.30;99.90;;;;;;4962825;28;20535;-89
2022/02/26 02:55:50;;;;;;;39.67;4.20;;;0.30;99.90;;;;;;4946500;28;20046;-88
2022/02/26 02:58:24;;;;;;;31.05;4.57;;;0.30;99.90;;;;;;4954371;28;20050;-89
2022/02/26 03:00:50;;;;;;;38.55;3.33;;;0.30;99.90;;;;;;4967730;28;20050;-89
2022/02/26 03:03:22;;;;;;;36.05;3.85;;;0.30;99.90;;;;;;4967700;28;20100;-88
2022/02/26 03:05:48;;;;;;;37.38;4.00;;;0.20;99.90;;;;;;4958101;28;20038;-89
2022/02/26 03:08:14;;;;;;;38.97;4.70;;;0.20;99.90;;;;;;4956576;28;20038;-89
2022/02/26 03:10:40;;;;;;;20.77;3.00;;;0.10;99.90;;;;;;4941091;28;20031;-89
2022/02/26 03:13:06;;;;;;;34.15;4.60;;;0.10;99.90;;;;;;4957056;28;20045;-88
2022/02/26 03:15:32;;;;;;;33.97;3.10;;;0.10;99.90;;;;;;4950189;28;20108;-89
2022/02/26 03:17:58;;;;;;;27.45;3.80;;;0.00;99.90;;;;;;4953640;28;20042;-89
2022/02/26 03:20:24;;;;;;;33.42;4.30;;;0.00;99.90;;;;;;4941661;28;20042;-89
2022/02/26 03:22:50;;;;;;;29.85;3.83;;;0.00;99.90;;;;;;4945437;28;20413;-88
2022/02/26 03:25:16;;;;;;;39.83;5.10;;;0.00;99.90;;;;;;4950556;28;20137;-89
2022/02/26 03:27:42;;;;;;;46.65;4.70;;;-0.10;99.90;;;;;;4952246;28;20078;-90
2022/02/26 03:30:09;;;;;;;25.83;3.97;;;-0.10;99.90;;;;;;4947934;28;20037;-89
2022/02/26 03:32:36;;;;;;;31.90;3.88;;;-0.10;99.90;;;;;;4967476;28;21502;-89
2022/02/26 03:35:03;;;;;;;34.67;3.58;;;-0.10;99.90;;;;;;4952820;28;20502;-88
2022/02/26 03:37:29;;;;;;;36.55;4.70;;;-0.10;99.90;;;;;;4966366;28;20129;-89
2022/02/26 03:39:56;;;;;;;30.85;3.42;;;-0.10;99.90;;;;;;4969490;28;20042;-88
2022/02/26 03:42:21;;;;;;;30.20;4.10;;;-0.10;99.90;;;;;;4963399;28;20053;-88
2022/02/26 03:44:48;;;;;;;38.05;3.28;;;-0.10;99.90;;;;;;4935408;28;20034;-89
2022/02/26 03:47:16;;;;;;;34.17;3.80;;;-0.10;99.90;;;;;;4949929;28;20482;-88
2022/02/26 03:49:45;;;;;;;22.30;3.47;;;-0.20;99.90;;;;;;4938772;28;20177;-89
2022/02/26 03:52:12;;;;;;;40.28;3.45;;;-0.20;99.90;;;;;;4965932;28;20030;-89
2022/02/26 03:54:37;;;;;;;30.08;5.22;;;-0.20;99.90;;;;;;4953896;28;20038;-89
2022/02/26 03:57:03;;;;;;;25.58;3.25;;;-0.30;99.90;;;;;;4948721;28;20046;-88
2022/02/26 03:59:29;;;;;;;24.60;3.08;;;-0.20;99.90;;;;;;4964612;28;20416;-88
2022/02/26 04:01:55;;;;;;;29.85;4.00;;;-0.30;99.90;;;;;;4943537;28;20494;-89
2022/02/26 04:04:21;;;;;;;27.65;4.05;;;-0.40;99.90;;;;;;4935563;28;20042;-89
2022/02/26 04:06:47;;;;;;;31.25;3.80;;;-0.40;99.90;;;;;;4945270;28;20046;-88
2022/02/26 04:09:12;;;;;;;26.17;3.90;;;-0.40;99.90;;;;;;4945794;28;20489;-89
2022/02/26 04:11:39;;;;;;;41.67;4.43;;;-0.40;99.90;;;;;;4965098;28;20042;-89
2022/02/26 04:14:05;;;;;;;27.90;3.38;;;-0.40;99.90;;;;;;4961048;28;20039;-88
2022/02/26 04:16:31;;;;;;;29.42;3.80;;;-0.50;99.90;;;;;;4953339;28;20050;-89
2022/02/26 04:18:57;;;;;;;36.88;3.90;;;-0.50;99.90;;;;;;4947245;28;20035;-89
2022/02/26 04:21:25;;;;;;;40.88;4.53;;;-0.60;99.90;;;;;;4966471;28;20038;-89
2022/02/26 04:23:52;;;;;;;31.77;3.88;;;-0.50;99.90;;;;;;4938443;28;20134;-89
2022/02/26 04:26:18;;;;;;;21.75;3.50;;;-0.60;99.90;;;;;;4952839;28;20039;-89
2022/02/26 04:28:43;;;;;;;34.30;3.67;;;-0.60;99.90;;;;;;4965561;28;20655;-89
2022/02/26 04:31:09;;;;;;;37.28;3.40;;;-0.60;99.90;;;;;;4952139;28;20246;-89
2022/02/26 04:33:35;;;;;;;35.15;3.97;;;-0.60;99.90;;;;;;4937303;28;20456;-90
2022/02/26 04:36:01;;;;;;;25.77;3.60;;;-0.60;99.90;;;;;;4945644;28;20046;-89
2022/02/26 04:38:29;;;;;;;32.53;3.25;;;-0.70;99.90;;;;;;4963373;28;20505;-90
2022/02/26 04:40:56;;;;;;;32.90;3.60;;;-0.60;99.90;;;;;;4967504;28;20122;-90
2022/02/26 04:43:22;;;;;;;27.15;3.90;;;-0.60;99.90;;;;;;4966950;28;20034;-90
2022/02/26 04:45:48;;;;;;;24.98;3.22;;;-0.70;99.90;;;;;;4946443;28;20041;-88
2022/02/26 04:48:14;;;;;;;32.33;3.45;;;-0.80;99.90;;;;;;4983840;28;20129;-89
2022/02/26 04:50:40;;;;;;;20.70;3.50;;;-0.70;99.90;;;;;;4933254;28;20045;-90
2022/02/26 04:53:06;;;;;;;28.88;3.03;;;-0.80;99.90;;;;;;4951619;28;20505;-89
2022/02/26 04:55:31;;;;;;;44.90;4.15;;;-0.80;99.90;;;;;;4946545;28;20042;-89
2022/02/26 04:57:57;;;;;;;29.58;3.20;;;-0.80;99.90;;;;;;4939260;28;20030;-89
2022/02/26 05:00:23;;;;;;;23.55;3.53;;;-0.80;99.90;;;;;;4947068;28;20052;-90
2022/02/26 05:02:48;;;;;;;45.40;3.65;;;-0.90;99.90;;;;;;4967004;28;20120;-89
2022/02/26 05:05:14;;;;;;;25.02;3.22;;;-0.90;99.90;;;;;;4947428;28;20473;-90
2022/02/26 05:07:40;;;;;;;27.35;3.67;;;-0.90;99.90;;;;;;4948460;28;20376;-90
2022/02/26 05:10:06;;;;;;;41.80;4.47;;;-0.80;99.90;;;;;;4951075;28;20469;-90
2022/02/26 05:12:32;;;;;;;24.52;3.50;;;-0.80;99.90;;;;;;4963111;28;20493;-90
2022/02/26 05:14:58;;;;;;;35.13;4.43;;;-0.80;99.90;;;;;;4948849;28;20026;-90
2022/02/26 05:17:24;;;;;;;33.90;3.50;;;-0.80;99.90;;;;;;4952636;28;20486;-91
2022/02/26 05:19:50;;;;;;;44.30;3.83;;;-0.80;99.90;;;;;;4963363;28;20061;-90
2022/02/26 05:22:16;;;;;;;28.85;3.40;;;-0.80;99.90;;;;;;4945980;28;20501;-90
2022/02/26 05:24:41;;;;;;;29.92;3.78;;;-0.90;99.90;;;;;;4935748;28;20500;-90
2022/02/26 05:27:07;;;;;;;25.90;4.20;;;-0.80;99.90;;;;;;4935804;28;20046;-90
2022/02/26 05:29:33;;;;;;;37.13;3.17;;;-0.80;99.90;;;;;;4932771;28;20034;-90
2022/02/26 05:31:58;;;;;;;34.63;4.80;;;-0.80;99.90;;;;;;4951064;28;20112;-91
2022/02/26 05:34:24;;;;;;;35.60;3.45;;;-0.80;99.90;;;;;;4937086;28;20072;-90
2022/02/26 05:36:50;;;;;;;39.55;4.00;;;-0.90;99.90;;;;;;4948224;28;20119;-90
2022/02/26 05:39:16;;;;;;;42.75;4.18;;;-0.70;99.90;;;;;;4935128;28;20041;-90
2022/02/26 05:41:41;;;;;;;35.05;3.88;;;-0.90;99.90;;;;;;4927609;28;20043;-89
2022/02/26 05:44:07;;;;;;;40.25;4.32;;;-0.80;99.90;;;;;;4967241;28;20042;-90
2022/02/26 05:46:33;;;;;;;34.83;3.95;;;-0.80;99.90;;;;;;4934067;28;20065;-90
2022/02/26 05:48:59;;;;;;;28.83;3.63;;;-0.80;99.90;;;;;;4948769;28;20092;-90
2022/02/26 05:51:25;;;;;;;27.92;4.20;;;-0.80;99.90;;;;;;4944202;28;20152;-90
2022/02/26 05:53:51;;;;;;;34.22;4.05;;;-0.80;99.90;;;;;;4959069;28;20039;-91
2022/02/26 05:56:17;;;;;;;33.88;3.45;;;-0.80;99.90;;;;;;4935042;28;20042;-90
2022/02/26 05:58:43;;;;;;;30.90;4.32;;;-0.90;99.90;;;;;;4932728;28;20070;-90
2022/02/26 06:01:09;;;;;;;29.50;5.65;;;-0.90;99.90;;;;;;4941664;28;20042;-90
2022/02/26 06:03:34;;;;;;;33.63;4.55;;;-0.90;99.90;;;;;;4924922;28;20421;-90
2022/02/26 06:06:00;;;;;;;20.75;3.05;;;-0.90;99.90;;;;;;4911447;28;20735;-90
2022/02/26 06:08:26;;;;;;;31.63;3.50;;;-0.90;99.90;;;;;;4921537;28;20097;-90
2022/02/26 06:10:52;;;;;;;24.15;3.22;;;-0.90;99.90;;;;;;4947000;28;20405;-90
2022/02/26 06:13:17;;;;;;;27.48;3.63;;;-0.90;99.90;;;;;;4950383;28;20034;-90
2022/02/26 06:15:43;;;;;;;35.92;3.53;;;-0.80;99.90;;;;;;4932021;28;20077;-90
2022/02/26 06:18:09;;;;;;;28.30;4.13;;;-0.80;99.90;;;;;;4959985;28;20056;-90
2022/02/26 06:20:34;;;;;;;36.58;4.57;;;-0.90;99.90;;;;;;4950533;28;20569;-89
2022/02/26 06:23:01;;;;;;;26.83;3.60;;;-0.90;99.90;;;;;;4946510;28;20561;-89
2022/02/26 06:25:27;;;;;;;40.97;5.32;;;-0.80;99.90;;;;;;4965570;28;20464;-90
2022/02/26 06:27:52;;;;;;;28.67;3.95;;;-0.90;99.90;;;;;;4961839;28;20089;-90
2022/02/26 06:30:18;;;;;;;36.15;3.70;;;-0.80;99.90;;;;;;4930594;28;20498;-90
2022/02/26 06:32:44;;;;;;;38.83;4.25;;;-0.80;99.90;;;;;;4961931;28;20518;-90
2022/02/26 06:35:11;;;;;;;33.40;3.92;;;-0.90;99.90;;;;;;4962481;28;20509;-90
2022/02/26 06:37:37;;;;;;;42.90;4.25;;;-1.00;99.90;;;;;;4946751;28;20077;-90
2022/02/26 06:40:05;;;;;;;32.67;4.07;;;-1.00;99.90;;;;;;4962483;28;20395;-90
2022/02/26 06:42:31;;;;;;;32.15;4.32;;;-1.00;99.90;;;;;;4944066;28;20498;-91
2022/02/26 06:44:57;;;;;;;29.95;4.03;;;-1.00;99.90;;;;;;4944241;28;20082;-91
2022/02/26 06:47:22;;;;;;;41.30;4.53;;;-0.90;99.90;;;;;;4935170;28;20038;-91
2022/02/26 06:49:48;;;;;;;22.90;3.58;;;-1.00;99.90;;;;;;4961653;28;20038;-91
2022/02/26 06:52:14;;;;;;;31.23;3.85;;;-1.00;99.90;;;;;;4942598;28;20057;-91
2022/02/26 06:54:40;;;;;;;23.92;4.80;;;-0.90;99.90;;;;;;4961034;28;20038;-90
2022/02/26 06:57:05;;;;;;;37.97;5.13;;;-0.90;99.90;;;;;;4949796;28;20096;-91
2022/02/26 06:59:32;;;;;;;28.77;4.03;;;-1.00;99.90;;;;;;4944276;28;20599;-90
2022/02/26 07:01:58;;;;;;;33.85;4.97;;;-1.00;99.90;;;;;;4947378;28;20300;-89
2022/02/26 07:04:24;;;;;;;25.92;4.45;;;-0.90;99.90;;;;;;4945994;28;20042;-91
2022/02/26 07:06:50;;;;;;;31.48;4.32;;;-1.00;99.90;;;;;;4965207;28;20042;-90
2022/02/26 07:09:18;;;;;;;48.10;5.18;;;-0.90;99.90;;;;;;4962436;28;20042;-91
2022/02/26 07:11:46;;;;;;;39.40;4.85;;;-0.90;99.90;;;;;;4957113;28;20030;-91
2022/02/26 07:14:12;;;;;;;32.28;4.72;;;-0.90;99.90;;;;;;4940803;28;20061;-90
2022/02/26 07:16:39;;;;;;;39.63;5.97;;;-0.90;99.90;;;;;;4963065;28;20501;-90
2022/02/26 07:19:05;;;;;;;34.95;5.32;;;-0.80;99.90;;;;;;4975182;28;20134;-90
2022/02/26 07:21:32;;;;;;;32.78;5.10;;;-0.80;99.90;;;;;;4948772;28;20149;-91
2022/02/26 07:23:58;;;;;;;24.45;6.10;;;-0.70;99.90;;;;;;4963041;28;20128;-90
2022/02/26 07:26:26;;;;;;;26.27;5.13;;;-0.70;99.90;;;;;;4963149;28;20081;-90
2022/02/26 07:28:52;;;;;;;33.97;6.10;;;-0.70;99.90;;;;;;4964077;28;20096;-89
2022/02/26 07:31:18;;;;;;;31.45;6.18;;;-0.60;99.90;;;;;;4933807;28;20121;-89
2022/02/26 07:33:44;;;;;;;37.58;5.75;;;-0.50;99.90;;;;;;4961940;28;20035;-90
2022/02/26 07:36:11;;;;;;;37.40;6.57;;;-0.60;99.90;;;;;;4964013;28;20081;-90
2022/02/26 07:38:37;;;;;;;35.45;5.82;;;-0.50;99.90;;;;;;4956250;28;20050;-89
2022/02/26 07:41:03;;;;;;;36.75;6.88;;;-0.50;99.90;;;;;;4951272;28;20041;-89
2022/02/26 07:43:29;;;;;;;39.50;6.75;;;-0.40;99.90;;;;;;4947914;28;20494;-89
2022/02/26 07:45:55;;;;;;;42.90;8.18;;;-0.40;99.90;;;;;;4949345;28;20042;-90
2022/02/26 07:48:21;;;;;;;28.20;6.07;;;-0.30;99.90;;;;;;4981711;28;20437;-90
2022/02/26 07:50:47;;;;;;;42.13;6.38;;;-0.10;99.90;;;;;;4948528;28;20027;-90
2022/02/26 07:53:13;;;;;;;41.72;7.07;;;-0.10;99.90;;;;;;4952087;28;20030;-89
2022/02/26 07:55:39;;;;;;;36.58;6.78;;;-0.10;99.90;;;;;;4966547;28;20046;-90
2022/02/26 07:58:06;;;;;;;31.67;6.05;;;0.00;99.90;;;;;;4936728;28;20052;-88
2022/02/26 08:00:32;;;;;;;36.83;6.30;;;0.10;99.90;;;;;;4966755;28;20134;-88
2022/02/26 08:03:00;;;;;;;37.55;5.20;;;0.20;99.90;;;;;;4949633;28;20548;-88
2022/02/26 08:05:26;;;;;;;41.58;5.00;;;0.30;99.90;;;;;;4951268;28;20138;-89
2022/02/26 08:07:53;;;;;;;35.00;5.45;;;0.40;99.90;;;;;;4947536;28;20044;-89
2022/02/26 08:10:21;;;;;;;34.50;5.55;;;0.50;99.90;;;;;;4949621;28;20030;-88
2022/02/26 08:12:49;;;;;;;39.60;5.40;;;0.50;99.90;;;;;;4964463;28;20130;-89
2022/02/26 08:15:15;;;;;;;32.20;4.88;;;0.60;99.90;;;;;;4964122;28;20414;-88
2022/02/26 08:17:44;;;;;;;33.10;5.00;;;0.70;99.90;;;;;;4937129;28;20085;-88
2022/02/26 08:20:11;;;;;;;31.20;4.30;;;0.80;99.90;;;;;;4962639;28;20038;-88
2022/02/26 08:22:36;;;;;;;34.47;5.35;;;0.90;99.90;;;;;;4962940;28;20097;-88
2022/02/26 08:25:03;;;;;;;34.45;5.25;;;1.00;99.90;;;;;;4937131;28;20046;-88
2022/02/26 08:27:29;;;;;;;45.55;6.72;;;1.20;99.90;;;;;;4968806;28;20049;-88
2022/02/26 08:29:55;;;;;;;39.53;5.97;;;1.20;99.90;;;;;;4944545;28;20849;-88
2022/02/26 08:32:21;;;;;;;33.83;5.63;;;1.40;99.90;;;;;;4950372;28;20557;-87
2022/02/26 08:34:47;;;;;;;42.47;4.68;;;1.50;99.90;;;;;;4949069;28;20030;-89
2022/02/26 08:37:12;;;;;;;41.47;5.63;;;1.60;99.90;;;;;;4951507;28;20066;-88
2022/02/26 08:39:38;;;;;;;35.15;5.13;;;1.70;99.90;;;;;;4946313;28;20084;-88
2022/02/26 08:42:05;;;;;;;24.27;4.15;;;1.90;99.90;;;;;;4943729;28;20042;-88
2022/02/26 08:44:32;;;;;;;54.88;7.95;;;2.00;99.90;;;;;;4948309;28;20049;-89
2022/02/26 08:46:58;;;;;;;36.95;6.70;;;2.10;99.90;;;;;;4931261;28;20081;-88
2022/02/26 08:49:25;;;;;;;28.00;6.85;;;2.20;99.90;;;;;;4944946;28;20038;-88
2022/02/26 08:51:51;;;;;;;27.60;5.28;;;2.40;99.90;;;;;;4976054;28;20125;-89
2022/02/26 08:54:17;;;;;;;36.08;4.70;;;2.50;99.90;;;;;;4971468;28;20034;-88
2022/02/26 08:56:43;;;;;;;31.85;5.80;;;2.60;99.90;;;;;;4952233;28;20045;-88
2022/02/26 08:59:10;;;;;;;38.13;6.90;;;2.70;99.90;;;;;;4949348;28;20469;-88
2022/02/26 09:01:36;;;;;;;31.90;6.43;;;2.80;99.90;;;;;;4964423;28;20116;-88
2022/02/26 09:04:02;;;;;;;28.52;6.00;;;2.90;99.90;;;;;;4967158;28;20046;-89
2022/02/26 09:06:28;;;;;;;42.13;6.05;;;3.00;99.90;;;;;;4947648;28;20049;-87
2022/02/26 09:08:54;;;;;;;35.35;5.40;;;3.10;99.90;;;;;;4953240;28;20038;-88
2022/02/26 09:11:20;;;;;;;29.33;4.55;;;3.30;99.90;;;;;;4953266;28;20054;-88
2022/02/26 09:13:46;;;;;;;28.95;5.22;;;3.30;99.90;;;;;;4951852;28;20136;-88
2022/02/26 09:16:13;;;;;;;24.95;4.63;;;3.50;99.90;;;;;;4976393;28;20375;-88
2022/02/26 09:18:39;;;;;;;29.80;5.53;;;3.60;99.90;;;;;;4952270;28;20097;-88
2022/02/26 09:21:06;;;;;;;35.25;4.50;;;3.70;99.90;;;;;;4968109;28;20414;-88
2022/02/26 09:23:33;;;;;;;29.08;4.63;;;3.70;99.90;;;;;;4946622;28;20489;-88
2022/02/26 09:25:59;;;;;;;33.58;5.55;;;3.80;99.90;;;;;;4964791;28;20043;-88
2022/02/26 09:28:25;;;;;;;31.98;4.30;;;3.90;99.90;;;;;;4966292;28;20046;-88
2022/02/26 09:30:50;;;;;;;22.33;4.53;;;4.00;99.90;;;;;;4966551;28;20429;-87
2022/02/26 09:33:16;;;;;;;27.58;4.18;;;4.10;99.90;;;;;;4949641;28;20476;-88
2022/02/26 09:35:42;;;;;;;35.00;4.53;;;4.20;99.90;;;;;;4950756;28;20814;-88
2022/02/26 09:38:08;;;;;;;27.67;4.82;;;4.30;99.90;;;;;;4951872;28;20424;-87
2022/02/26 09:40:34;;;;;;;34.25;4.80;;;4.40;99.90;;;;;;4952630;23;20039;-88
2022/02/26 09:43:00;;;;;;;30.80;4.95;;;4.50;99.90;;;;;;4957447;28;20035;-88
2022/02/26 09:45:26;;;;;;;26.10;4.10;;;4.70;99.90;;;;;;4946566;28;20102;-88
2022/02/26 09:47:52;;;;;;;36.20;4.90;;;;;;;;;;4927338;28;20478;-88
2022/02/26 09:50:19;;;;;;;25.75;4.00;;;;;;;;;;4962659;28;20454;-87
2022/02/26 09:52:46;;;;;;;31.73;5.00;;;;;;;;;;4966658;28;20043;-88
2022/02/26 09:55:13;;;;;;;29.45;4.00;;;;;;;;;;4962817;28;20273;-88
2022/02/26 09:57:39;;;;;;;30.75;4.32;;;;;;;;;;4946831;28;20043;-88
2022/02/26 10:00:07;;;;;;;28.48;3.65;;;;;;;;;;4943249;28;20594;-88
2022/02/26 10:02:38;;;;;;;30.27;4.30;;;;;;;;;;4946973;28;20058;-88
2022/02/26 10:05:07;;;;;;;29.90;3.60;;;;;;;;;;4965537;28;20042;-88
2022/02/26 10:07:34;;;;;;;30.98;3.95;;;;;;;;;;4958586;28;20067;-88
2022/02/26 10:10:00;;;;;;;30.45;3.58;;;;;;;;;;4962186;28;20030;-88
2022/02/26 10:12:28;;;;;;;27.20;3.47;;;;;;;;;;4945092;28;20402;-88
2022/02/26 10:14:56;;;;;;;25.58;3.92;;;;;;;;;;4946776;28;20035;-88
2022/02/26 10:17:27;;;;;;;30.65;4.18;;;;;;;;;;4942456;28;20046;-88
2022/02/26 10:20:12;;;;;;;19.52;3.35;;;;;;;;;;4951596;28;20051;-88
2022/02/26 10:22:40;;;;;;;26.20;3.28;;;;;;;;;;4944744;28;20050;-87
2022/02/26 10:25:08;;;;;;;25.90;3.60;;;;;;;;;;4947765;28;20050;-88
2022/02/26 10:27:37;;;;;;;22.85;3.40;;;;;;;;;;4955619;28;20039;-88
2022/02/26 10:30:04;;;;;;;27.50;3.40;;;;;;;;;;4947790;28;20706;-87
2022/02/26 10:32:30;;;;;;;30.05;3.85;;;;;;;;;;4965992;28;20035;-88
2022/02/26 10:34:56;;;;;;;23.08;3.30;;;;;;;;;;4950370;28;20128;-88
2022/02/26 10:37:23;;;;;;;28.02;3.80;;;;;;;;;;4934660;28;20515;-88
2022/02/26 10:39:56;;;;;;;26.70;4.03;;;;;;;;;;4965709;28;20038;-88
2022/02/26 10:42:24;;;;;;;19.45;2.67;;;;;;;;;;4964558;28;20066;-88
2022/02/26 10:45:02;;;;;;;27.30;3.30;;;;;;;;;;4958134;28;20050;-88
2022/02/26 10:47:29;;;;;;;27.45;3.70;;;;;;;;;;4972845;28;20054;-88
2022/02/26 10:49:56;;;;;;;24.10;3.67;;;;;;;;;;4948978;28;20525;-88
2022/02/26 10:52:22;;;;;;;20.00;2.90;;;;;;;;;;4962277;28;20038;-88
2022/02/26 10:54:52;;;;;;;25.10;3.83;;;;;;;;;;4977411;28;20046;-88
2022/02/26 10:57:18;;;;;;;27.05;3.22;;;;;;;;;;4954694;28;20490;-88
2022/02/26 10:59:45;;;;;;;19.38;2.90;;;;;;;;;;4966376;28;20057;-89
2022/02/26 11:02:16;;;;;;;19.25;2.97;;;;;;;;;;4962862;28;20130;-89
2022/02/26 11:04:42;;;;;;;35.10;5.05;;;;;;;;;;4951631;28;20117;-88
2022/02/26 11:07:11;;;;;;;22.33;3.88;;;;;;;;;;4946881;28;20066;-89
2022/02/26 11:09:40;;;;;;;21.67;3.13;;;;;;;;;;4938235;28;20031;-89
2022/02/26 11:12:06;;;;;;;22.70;2.75;;;;;;;;;;4969086;28;20045;-88
2022/02/26 11:14:34;;;;;;;23.52;2.67;;;;;;;;;;4949716;28;20572;-89
2022/02/26 11:17:01;;;;;;;20.65;3.03;;;;;;;;;;4968897;28;20047;-89
2022/02/26 11:19:31;;;;;;;20.33;3.15;;;;;;;;;;4969274;28;20039;-88
2022/02/26 11:21:59;;;;;;;17.35;2.83;;;;;;;;;;4935370;28;20501;-89
2022/02/26 11:24:26;;;;;;;19.15;3.08;;;;;;;;;;4949947;28;20062;-86
2022/02/26 11:26:52;;;;;;;22.95;2.75;;;;;;;;;;4961106;28;20095;-86
2022/02/26 11:29:20;;;;;;;13.20;2.30;;;;;;;;;;4950910;28;20047;-85
2022/02/26 11:31:46;;;;;;;22.95;3.03;;;;;;;;;;4946387;28;20676;-89
2022/02/26 11:34:14;;;;;;;24.92;2.97;;;;;;;;;;4952333;28;20089;-85
2022/02/26 11:36:46;;;;;;;21.60;2.40;;;;;;;;;;4960048;28;20078;-86
2022/02/26 11:39:21;;;;;;;23.23;2.45;;;;;;;;;;4962266;28;20117;-86
2022/02/26 11:41:47;;;;;;;22.90;2.67;;;;;;;;;;4958142;28;20049;-86
2022/02/26 11:44:13;;;;;;;18.42;2.58;;;;;;;;;;4954556;28;20054;-87
2022/02/26 11:46:40;;;;;;;20.95;3.08;;;;;;;;;;4946962;28;20043;-86
2022/02/26 11:49:27;;;;;;;13.73;2.45;;;;;;;;;;4946906;28;20071;-85
2022/02/26 11:51:53;;;;;;;17.05;2.13;;;;;;;;;;4966587;28;20038;-89
2022/02/26 11:54:21;;;;;;;17.30;2.42;;;;;;;;;;4945812;28;20299;-86
2022/02/26 11:56:56;;;;;;;18.48;2.70;;;;;;;;;;4966070;28;20047;-86
2022/02/26 11:59:42;;;;;;;14.38;2.30;;;;;;;;;;4969886;28;20545;-85
2022/02/26 12:02:11;;;;;;;19.27;2.75;;;;;;;;;;4951050;28;20039;-86
2022/02/26 12:04:43;;;;;;;23.17;3.03;;;;;;;;;;4968214;28;20085;-86
2022/02/26 12:07:10;;;;;;;18.70;2.40;;;;;;;;;;4963006;28;20418;-86
2022/02/26 12:09:55;;;;;;;21.70;3.30;;;;;;;;;;4965094;28;20054;-86
2022/02/26 12:12:41;;;;;;;21.13;3.28;;;;;;;;;;4944367;28;20050;-85
2022/02/26 12:15:17;;;;;;;20.20;2.75;;;;;;;;;;4951533;28;20482;-86
2022/02/26 12:17:47;;;;;;;19.02;2.85;;;;;;;;;;4966458;28;20045;-86
2022/02/26 12:20:15;;;;;;;17.90;2.95;;;;;;;;;;4956974;28;20425;-87
2022/02/26 12:22:44;;;;;;;26.33;2.60;;;;;;;;;;4949621;28;20039;-87
2022/02/26 12:25:12;;;;;;;18.65;2.70;;;;;;;;;;4944624;28;20035;-87
2022/02/26 12:27:38;;;;;;;21.65;3.05;;;;;;;;;;4951617;28;20592;-86
2022/02/26 12:30:12;;;;;;;14.82;2.42;;;;;;;;;;4953706;28;20402;-86
2022/02/26 12:32:52;;;;;;;17.80;2.85;;;;;;;;;;4966386;28;20043;-86
2022/02/26 12:35:19;;;;;;;21.13;2.80;;;;;;;;;;4972355;28;20105;-86
2022/02/26 12:37:48;;;;;;;21.48;3.08;;;;;;;;;;4955863;28;20066;-87
2022/02/26 12:40:19;;;;;;;14.43;2.30;;;;;;;;;;4980673;28;20066;-86
2022/02/26 12:42:46;;;;;;;22.02;3.47;;;;;;;;;;4968275;28;20430;-86
2022/02/26 12:45:13;;;;;;;15.07;2.25;;;;;;;;;;4965599;28;20134;-86
2022/02/26 12:47:40;;;;;;;20.55;2.78;;;;;;;;;;4966431;28;20035;-86
2022/02/26 12:50:08;;;;;;;16.05;2.42;;;;;;;;;;4964399;28;20091;-86
2022/02/26 12:52:35;;;;;;;21.50;2.72;;;;;;;;;;4968173;28;20035;-86
2022/02/26 12:55:08;;;;;;;16.05;2.28;;;;;;;;;;4965356;28;20031;-85
2022/02/26 12:57:35;;;;;;;17.45;2.55;;;;;;;;;;4970932;28;20426;-85
2022/02/26 13:00:01;;;;;;;23.10;2.45;;;;;;;;;;4960152;28;20097;-86
2022/02/26 13:02:28;;;;;;;20.23;2.47;;;;;;;;;;4957709;28;20039;-85
2022/02/26 13:05:01;;;;;;;15.00;2.03;;;;;;;;;;4962606;28;20038;-86
2022/02/26 13:07:28;;;;;;;19.48;2.58;;;;;;;;;;4976982;28;20481;-87
2022/02/26 13:09:55;;;;;;;18.08;2.45;;;;;;;;;;4992740;28;20022;-85